Погода Таборна неделю

Мазовецкое воеводство, Польша

18 - 24 июля
  • 18июля
    Сегодня
    +16°
    +27°
    Небольшая облачность
    ВремяПогодаТемператураВлажностьДавлениеВетер, м/сВероятность осадков
    02:00Небольшая облачность+19°C76 %758 мм2.3 м/с20 %
    05:00Ясно и безоблачно+18°C85 %758 мм1.8 м/с5 %
    08:00Ясно и безоблачно+21°C71 %759 мм2.4 м/с1 %
    11:00Практически безоблачно+25°C50 %759 мм3.9 м/с2 %
    14:00Небольшая облачность+26°C43 %758 мм4.2 м/с2 %
    17:00Облачно с прояснениями+27°C43 %758 мм4.4 м/с2 %
    20:00Практически безоблачно+23°C56 %758 мм3.1 м/с2 %
    23:00Облачно с прояснениями+20°C71 %759 мм2.2 м/с2 %
  • 19июля
    Пятница
    +16°
    +28°
    Практически безоблачно
    ВремяПогодаТемператураВлажностьДавлениеВетер, м/сВероятность осадков
    02:00Облачно с прояснениями+18°C83 %759 мм1.8 м/с2 %
    05:00Облачно с прояснениями+17°C88 %759 мм1.6 м/с2 %
    08:00Ясно и безоблачно+21°C72 %759 мм1.7 м/с2 %
    11:00Ясно и безоблачно+24°C52 %759 мм3.2 м/с1 %
    14:00Практически безоблачно+26°C41 %758 мм3.7 м/с2 %
    17:00Ясно и безоблачно+27°C37 %756 мм3.8 м/с2 %
    20:00Ясно и безоблачно+24°C50 %756 мм2.9 м/с2 %
    23:00Ясно и безоблачно+21°C70 %756 мм2.0 м/с2 %
  • 20июля
    Суббота
    +16°
    +28°
    Облачно с прояснениями
    ВремяПогодаТемператураВлажностьДавлениеВетер, м/сВероятность осадков
    02:00Ясно и безоблачно+19°C74 %756 мм1.4 м/с2 %
    05:00Ясно и безоблачно+17°C88 %755 мм1.2 м/с2 %
    08:00Практически безоблачно+20°C68 %755 мм1.4 м/с2 %
    11:00Облачно с прояснениями+25°C49 %754 мм2.5 м/с2 %
    14:00Облачно с прояснениями+27°C43 %753 мм2.9 м/с2 %
    17:00Облачно с прояснениями+28°C41 %752 мм2.9 м/с2 %
    20:00Небольшая облачность+25°C59 %752 мм2.4 м/с2 %
    23:00Небольшая облачность+21°C51 %752 мм1.6 м/с2 %
  • 21июля
    Воскресенье
    +16°
    +30°
    Ясно и безоблачно
    ВремяПогодаТемператураВлажностьДавлениеВетер, м/сВероятность осадков
    02:00Ясно и безоблачно+18°C80 %751 мм1.9 м/с2 %
    05:00Ясно и безоблачно+17°C80 %751 мм1.2 м/с2 %
    08:00Ясно и безоблачно+21°C62 %751 мм1.4 м/с2 %
    11:00Ясно и безоблачно+27°C38 %751 мм2.1 м/с2 %
    14:00Ясно и безоблачно+29°C35 %750 мм2.9 м/с2 %
    17:00Ясно и безоблачно+30°C34 %749 мм2.6 м/с2 %
    20:00Ясно и безоблачно+26°C50 %749 мм2.0 м/с2 %
    23:00Ясно и безоблачно+23°C55 %749 мм1.9 м/с2 %
  • 22июля
    Понедельник
    +18°
    +31°
    Облачно с прояснениями
    ВремяПогодаТемператураВлажностьДавлениеВетер, м/сВероятность осадков
    02:00Ясно и безоблачно+19°C76 %749 мм1.8 м/с2 %
    05:00Ясно и безоблачно+17°C86 %749 мм1.3 м/с2 %
    08:00Ясно и безоблачно+22°C63 %750 мм1.1 м/с6 %
    11:00Ясно и безоблачно+28°C36 %750 мм2.4 м/с13 %
    14:00Облачно с прояснениями+31°C32 %750 мм3.4 м/с28 %
    17:00Практически безоблачно+29°C32 %749 мм3.4 м/с39 %
    20:00Ясно и безоблачно+26°C50 %749 мм2.5 м/с25 %
    23:00Пасмурно, сплошная облачность+24°C55 %750 мм1.7 м/с18 %
Мы используем cookies
Соглашаюсь